sensor_id;sensor_type;location;lat;lon;timestamp;pressure;altitude;pressure_sealevel;temperature;humidity
75747;BME280;70632;52.232;21.038;2023-09-12T00:01:34;99925.09;;;36.36;29.87
75747;BME280;70632;52.232;21.038;2023-09-12T00:03:59;99924.22;;;37.46;28.85
75747;BME280;70632;52.232;21.038;2023-09-12T00:06:25;99917.75;;;37.82;28.31
75747;BME280;70632;52.232;21.038;2023-09-12T00:08:51;99925.09;;;36.85;29.39
75747;BME280;70632;52.232;21.038;2023-09-12T00:11:18;99919.22;;;36.75;29.91
75747;BME280;70632;52.232;21.038;2023-09-12T00:13:44;99921.63;;;36.40;30.60
75747;BME280;70632;52.232;21.038;2023-09-12T00:16:10;99914.06;;;35.98;31.15
75747;BME280;70632;52.232;21.038;2023-09-12T00:18:39;99912.97;;;35.99;31.05
75747;BME280;70632;52.232;21.038;2023-09-12T00:21:04;99919.19;;;35.94;31.30
75747;BME280;70632;52.232;21.038;2023-09-12T00:23:30;99917.84;;;35.72;31.64
75747;BME280;70632;52.232;21.038;2023-09-12T00:25:57;99920.09;;;35.88;31.29
75747;BME280;70632;52.232;21.038;2023-09-12T00:28:23;99923.47;;;36.53;30.49
75747;BME280;70632;52.232;21.038;2023-09-12T00:30:49;99924.97;;;36.98;29.48
75747;BME280;70632;52.232;21.038;2023-09-12T00:33:15;99921.97;;;37.84;28.12
75747;BME280;70632;52.232;21.038;2023-09-12T00:35:41;99917.06;;;35.52;30.37
75747;BME280;70632;52.232;21.038;2023-09-12T00:38:09;99925.56;;;34.60;32.68
75747;BME280;70632;52.232;21.038;2023-09-12T00:40:34;99929.19;;;34.93;33.00
75747;BME280;70632;52.232;21.038;2023-09-12T00:43:00;99921.81;;;35.38;31.88
75747;BME280;70632;52.232;21.038;2023-09-12T00:45:26;99922.28;;;35.29;31.39
75747;BME280;70632;52.232;21.038;2023-09-12T00:47:52;99917.22;;;35.63;31.13
75747;BME280;70632;52.232;21.038;2023-09-12T00:50:20;99925.13;;;35.66;31.99
75747;BME280;70632;52.232;21.038;2023-09-12T00:52:49;99930.69;;;38.06;28.67
75747;BME280;70632;52.232;21.038;2023-09-12T00:55:15;99923.84;;;36.81;30.21
75747;BME280;70632;52.232;21.038;2023-09-12T00:57:40;99920.91;;;35.51;32.10
75747;BME280;70632;52.232;21.038;2023-09-12T01:00:07;99917.63;;;35.09;33.78
75747;BME280;70632;52.232;21.038;2023-09-12T01:02:41;99910.41;;;34.95;33.75
75747;BME280;70632;52.232;21.038;2023-09-12T01:05:08;99912.38;;;35.52;32.74
75747;BME280;70632;52.232;21.038;2023-09-12T01:07:35;99915.44;;;35.38;32.53
75747;BME280;70632;52.232;21.038;2023-09-12T01:10:02;99910.81;;;34.99;33.21
75747;BME280;70632;52.232;21.038;2023-09-12T01:12:29;99913.19;;;36.53;30.87
75747;BME280;70632;52.232;21.038;2023-09-12T01:14:55;99911.81;;;36.13;31.30
75747;BME280;70632;52.232;21.038;2023-09-12T01:17:21;99910.25;;;36.73;30.92
75747;BME280;70632;52.232;21.038;2023-09-12T01:19:47;99912.31;;;35.59;32.03
75747;BME280;70632;52.232;21.038;2023-09-12T01:27:35;99913.09;;;35.79;32.16
75747;BME280;70632;52.232;21.038;2023-09-12T01:30:05;99916.25;;;35.45;32.73
75747;BME280;70632;52.232;21.038;2023-09-12T01:32:31;99907.00;;;35.64;32.29
75747;BME280;70632;52.232;21.038;2023-09-12T01:34:58;99912.97;;;36.30;31.17
75747;BME280;70632;52.232;21.038;2023-09-12T01:37:23;99907.31;;;36.19;31.18
75747;BME280;70632;52.232;21.038;2023-09-12T01:39:49;99909.50;;;37.75;29.12
75747;BME280;70632;52.232;21.038;2023-09-12T01:42:17;99920.28;;;37.35;29.49
75747;BME280;70632;52.232;21.038;2023-09-12T01:44:44;99922.88;;;38.38;28.24
75747;BME280;70632;52.232;21.038;2023-09-12T01:47:11;99910.81;;;39.14;26.94
75747;BME280;70632;52.232;21.038;2023-09-12T01:49:40;99910.44;;;39.73;26.09
75747;BME280;70632;52.232;21.038;2023-09-12T01:52:07;99913.28;;;39.50;26.23
75747;BME280;70632;52.232;21.038;2023-09-12T01:54:34;99912.53;;;37.56;28.49
75747;BME280;70632;52.232;21.038;2023-09-12T01:57:00;99921.59;;;38.52;27.26
75747;BME280;70632;52.232;21.038;2023-09-12T01:59:28;99916.00;;;39.22;26.42
75747;BME280;70632;52.232;21.038;2023-09-12T02:01:54;99908.41;;;39.57;25.90
75747;BME280;70632;52.232;21.038;2023-09-12T02:04:20;99914.78;;;39.41;26.92
75747;BME280;70632;52.232;21.038;2023-09-12T02:06:46;99919.16;;;39.37;26.97
75747;BME280;70632;52.232;21.038;2023-09-12T02:09:12;99915.41;;;39.71;26.63
75747;BME280;70632;52.232;21.038;2023-09-12T02:11:37;99914.16;;;40.07;25.92
75747;BME280;70632;52.232;21.038;2023-09-12T02:14:03;99910.22;;;39.12;27.68
75747;BME280;70632;52.232;21.038;2023-09-12T02:16:31;99911.59;;;40.06;25.93
75747;BME280;70632;52.232;21.038;2023-09-12T02:18:57;99914.53;;;39.83;26.51
75747;BME280;70632;52.232;21.038;2023-09-12T02:21:22;99911.44;;;39.96;25.78
75747;BME280;70632;52.232;21.038;2023-09-12T02:23:48;99907.34;;;40.32;25.74
75747;BME280;70632;52.232;21.038;2023-09-12T02:26:14;99911.53;;;39.72;26.50
75747;BME280;70632;52.232;21.038;2023-09-12T02:28:39;99908.00;;;39.65;26.56
75747;BME280;70632;52.232;21.038;2023-09-12T02:31:11;99910.72;;;39.89;26.58
75747;BME280;70632;52.232;21.038;2023-09-12T02:33:38;99906.84;;;39.90;26.72
75747;BME280;70632;52.232;21.038;2023-09-12T02:36:04;99910.06;;;39.98;26.13
75747;BME280;70632;52.232;21.038;2023-09-12T02:38:30;99916.09;;;40.07;26.42
75747;BME280;70632;52.232;21.038;2023-09-12T02:40:56;99915.94;;;40.13;26.46
75747;BME280;70632;52.232;21.038;2023-09-12T02:43:22;99911.16;;;40.42;25.16
75747;BME280;70632;52.232;21.038;2023-09-12T02:45:47;99912.16;;;40.53;25.78
75747;BME280;70632;52.232;21.038;2023-09-12T02:48:13;99912.22;;;40.08;25.44
75747;BME280;70632;52.232;21.038;2023-09-12T02:50:39;99913.38;;;40.24;25.66
75747;BME280;70632;52.232;21.038;2023-09-12T02:53:05;99910.22;;;40.20;25.25
75747;BME280;70632;52.232;21.038;2023-09-12T02:55:32;99913.69;;;40.27;25.71
75747;BME280;70632;52.232;21.038;2023-09-12T02:57:57;99913.84;;;40.37;24.99
75747;BME280;70632;52.232;21.038;2023-09-12T03:00:23;99909.38;;;39.91;25.84
75747;BME280;70632;52.232;21.038;2023-09-12T03:02:49;99909.81;;;40.61;25.05
75747;BME280;70632;52.232;21.038;2023-09-12T03:05:14;99914.97;;;40.36;25.56
75747;BME280;70632;52.232;21.038;2023-09-12T03:07:40;99913.09;;;40.25;25.41
75747;BME280;70632;52.232;21.038;2023-09-12T03:10:06;99910.16;;;40.65;24.82
75747;BME280;70632;52.232;21.038;2023-09-12T03:12:32;99914.78;;;39.81;25.75
75747;BME280;70632;52.232;21.038;2023-09-12T03:14:57;99909.28;;;39.86;25.90
75747;BME280;70632;52.232;21.038;2023-09-12T03:17:23;99910.94;;;39.99;25.88
75747;BME280;70632;52.232;21.038;2023-09-12T03:19:49;99911.09;;;40.09;25.70
75747;BME280;70632;52.232;21.038;2023-09-12T03:22:15;99913.25;;;40.18;25.06
75747;BME280;70632;52.232;21.038;2023-09-12T03:24:40;99917.50;;;39.93;25.58
75747;BME280;70632;52.232;21.038;2023-09-12T03:27:06;99916.69;;;40.09;25.75
75747;BME280;70632;52.232;21.038;2023-09-12T03:29:32;99910.28;;;40.08;25.01
75747;BME280;70632;52.232;21.038;2023-09-12T03:31:58;99910.31;;;40.42;25.16
75747;BME280;70632;52.232;21.038;2023-09-12T03:34:24;99918.28;;;40.05;25.22
75747;BME280;70632;52.232;21.038;2023-09-12T03:36:50;99925.72;;;39.71;25.66
75747;BME280;70632;52.232;21.038;2023-09-12T03:39:15;99920.78;;;39.61;26.06
75747;BME280;70632;52.232;21.038;2023-09-12T03:41:41;99924.13;;;39.23;27.04
75747;BME280;70632;52.232;21.038;2023-09-12T03:44:07;99919.38;;;40.15;25.51
75747;BME280;70632;52.232;21.038;2023-09-12T03:46:33;99923.06;;;39.76;26.40
75747;BME280;70632;52.232;21.038;2023-09-12T03:48:59;99925.56;;;40.34;25.97
75747;BME280;70632;52.232;21.038;2023-09-12T03:51:25;99931.81;;;39.56;26.21
75747;BME280;70632;52.232;21.038;2023-09-12T03:53:50;99926.66;;;39.25;26.79
75747;BME280;70632;52.232;21.038;2023-09-12T03:56:17;99931.66;;;38.42;27.84
75747;BME280;70632;52.232;21.038;2023-09-12T03:58:45;99933.53;;;38.29;27.83
75747;BME280;70632;52.232;21.038;2023-09-12T04:01:11;99922.56;;;38.46;27.41
75747;BME280;70632;52.232;21.038;2023-09-12T04:03:37;99929.16;;;38.87;26.74
75747;BME280;70632;52.232;21.038;2023-09-12T04:06:02;99933.75;;;38.93;26.35
75747;BME280;70632;52.232;21.038;2023-09-12T04:08:28;99936.81;;;37.67;28.43
75747;BME280;70632;52.232;21.038;2023-09-12T04:10:54;99928.94;;;37.27;28.69
75747;BME280;70632;52.232;21.038;2023-09-12T04:13:19;99936.28;;;37.58;27.99
75747;BME280;70632;52.232;21.038;2023-09-12T04:15:45;99933.19;;;37.30;28.68
75747;BME280;70632;52.232;21.038;2023-09-12T04:18:11;99940.81;;;37.71;28.33
75747;BME280;70632;52.232;21.038;2023-09-12T04:20:36;99936.50;;;36.77;29.28
75747;BME280;70632;52.232;21.038;2023-09-12T04:23:03;99942.06;;;37.75;28.17
75747;BME280;70632;52.232;21.038;2023-09-12T04:25:30;99933.47;;;37.40;28.72
75747;BME280;70632;52.232;21.038;2023-09-12T04:27:55;99939.56;;;36.94;29.21
75747;BME280;70632;52.232;21.038;2023-09-12T04:30:21;99943.63;;;36.91;29.70
75747;BME280;70632;52.232;21.038;2023-09-12T04:32:47;99939.91;;;37.59;28.29
75747;BME280;70632;52.232;21.038;2023-09-12T04:35:13;99942.84;;;37.93;27.80
75747;BME280;70632;52.232;21.038;2023-09-12T04:37:38;99946.47;;;38.24;27.45
75747;BME280;70632;52.232;21.038;2023-09-12T04:40:06;99944.53;;;38.24;27.62
75747;BME280;70632;52.232;21.038;2023-09-12T04:42:32;99947.44;;;36.23;30.97
75747;BME280;70632;52.232;21.038;2023-09-12T04:44:57;99948.78;;;37.13;29.17
75747;BME280;70632;52.232;21.038;2023-09-12T04:47:23;99942.50;;;36.99;29.31
75747;BME280;70632;52.232;21.038;2023-09-12T04:49:49;99947.69;;;37.68;28.67
75747;BME280;70632;52.232;21.038;2023-09-12T18:50:06;99910.22;;;39.12;22.95
75747;BME280;70632;52.232;21.038;2023-09-12T18:52:32;99916.31;;;38.85;23.51
75747;BME280;70632;52.232;21.038;2023-09-12T18:54:57;99914.19;;;39.39;22.66
75747;BME280;70632;52.232;21.038;2023-09-12T18:57:23;99920.88;;;38.68;23.01
75747;BME280;70632;52.232;21.038;2023-09-12T18:59:49;99919.91;;;38.51;23.43
75747;BME280;70632;52.232;21.038;2023-09-12T19:02:15;99916.91;;;38.88;23.93
75747;BME280;70632;52.232;21.038;2023-09-12T19:04:40;99905.94;;;39.44;22.99
75747;BME280;70632;52.232;21.038;2023-09-12T19:07:06;99908.94;;;39.43;23.30
75747;BME280;70632;52.232;21.038;2023-09-12T19:09:32;99910.63;;;40.29;22.31
75747;BME280;70632;52.232;21.038;2023-09-12T19:11:58;99906.13;;;41.33;20.78
75747;BME280;70632;52.232;21.038;2023-09-12T19:14:24;99915.75;;;40.48;21.42
75747;BME280;70632;52.232;21.038;2023-09-12T19:16:54;99910.97;;;40.49;21.94
75747;BME280;70632;52.232;21.038;2023-09-12T19:19:21;99913.00;;;40.53;21.87
75747;BME280;70632;52.232;21.038;2023-09-12T19:21:49;99906.53;;;40.03;22.30
75747;BME280;70632;52.232;21.038;2023-09-12T19:24:16;99914.69;;;39.64;22.82
75747;BME280;70632;52.232;21.038;2023-09-12T19:26:42;99908.66;;;41.34;21.26
75747;BME280;70632;52.232;21.038;2023-09-12T19:29:08;99913.78;;;40.49;21.71
75747;BME280;70632;52.232;21.038;2023-09-12T19:31:34;99908.66;;;41.34;20.57
75747;BME280;70632;52.232;21.038;2023-09-12T19:34:00;99907.94;;;40.84;21.13
75747;BME280;70632;52.232;21.038;2023-09-12T19:36:28;99909.91;;;40.66;21.28
75747;BME280;70632;52.232;21.038;2023-09-12T19:38:55;99913.25;;;41.02;20.59
75747;BME280;70632;52.232;21.038;2023-09-12T19:41:23;99902.25;;;40.45;21.31
75747;BME280;70632;52.232;21.038;2023-09-12T19:43:49;99907.34;;;40.15;21.36
75747;BME280;70632;52.232;21.038;2023-09-12T19:46:15;99902.00;;;40.30;21.82
75747;BME280;70632;52.232;21.038;2023-09-12T19:48:43;99900.91;;;40.48;21.37
75747;BME280;70632;52.232;21.038;2023-09-12T19:51:14;99904.00;;;40.85;21.21
75747;BME280;70632;52.232;21.038;2023-09-12T19:53:41;99905.94;;;39.72;21.78
75747;BME280;70632;52.232;21.038;2023-09-12T19:56:07;99903.13;;;40.62;21.10
75747;BME280;70632;52.232;21.038;2023-09-12T19:58:33;99906.28;;;41.43;20.36
75747;BME280;70632;52.232;21.038;2023-09-12T20:00:59;99918.03;;;40.06;21.86
75747;BME280;70632;52.232;21.038;2023-09-12T20:03:27;99909.63;;;41.23;20.79
75747;BME280;70632;52.232;21.038;2023-09-12T20:05:53;99906.94;;;40.56;21.07
75747;BME280;70632;52.232;21.038;2023-09-12T20:08:19;99918.59;;;39.63;23.04
75747;BME280;70632;52.232;21.038;2023-09-12T20:10:45;99916.97;;;39.79;23.23
75747;BME280;70632;52.232;21.038;2023-09-12T20:13:11;99916.66;;;41.26;22.18
75747;BME280;70632;52.232;21.038;2023-09-12T20:15:37;99916.97;;;41.07;21.89
75747;BME280;70632;52.232;21.038;2023-09-12T20:18:06;99920.50;;;39.74;22.18
75747;BME280;70632;52.232;21.038;2023-09-12T20:20:34;99917.09;;;40.79;21.30
75747;BME280;70632;52.232;21.038;2023-09-12T20:23:00;99916.53;;;40.60;21.75
75747;BME280;70632;52.232;21.038;2023-09-12T20:25:27;99921.56;;;40.47;22.06
75747;BME280;70632;52.232;21.038;2023-09-12T20:27:52;99925.53;;;40.17;22.14
75747;BME280;70632;52.232;21.038;2023-09-12T20:30:18;99923.63;;;40.06;22.51
75747;BME280;70632;52.232;21.038;2023-09-12T20:32:47;99919.19;;;40.22;21.88
75747;BME280;70632;52.232;21.038;2023-09-12T20:35:13;99917.41;;;39.59;22.53
75747;BME280;70632;52.232;21.038;2023-09-12T20:37:50;99919.06;;;39.32;22.95
75747;BME280;70632;52.232;21.038;2023-09-12T20:40:16;99914.81;;;39.06;23.45
75747;BME280;70632;52.232;21.038;2023-09-12T20:42:43;99913.94;;;39.69;23.06
75747;BME280;70632;52.232;21.038;2023-09-12T20:45:12;99906.81;;;39.61;22.65
75747;BME280;70632;52.232;21.038;2023-09-12T20:47:38;99911.28;;;39.22;22.90
75747;BME280;70632;52.232;21.038;2023-09-12T20:50:04;99904.25;;;39.08;23.35
75747;BME280;70632;52.232;21.038;2023-09-12T20:52:33;99912.41;;;39.61;22.82
75747;BME280;70632;52.232;21.038;2023-09-12T20:54:59;99917.31;;;39.83;22.63
75747;BME280;70632;52.232;21.038;2023-09-12T20:57:25;99923.19;;;39.06;23.15
75747;BME280;70632;52.232;21.038;2023-09-12T20:59:50;99911.44;;;39.16;23.31
75747;BME280;70632;52.232;21.038;2023-09-12T21:02:16;99912.72;;;39.37;23.50
75747;BME280;70632;52.232;21.038;2023-09-12T21:04:42;99919.72;;;39.51;23.10
75747;BME280;70632;52.232;21.038;2023-09-12T21:07:07;99922.78;;;39.26;23.93
75747;BME280;70632;52.232;21.038;2023-09-12T21:09:33;99924.28;;;38.94;24.94
75747;BME280;70632;52.232;21.038;2023-09-12T21:11:58;99929.88;;;38.94;23.91
75747;BME280;70632;52.232;21.038;2023-09-12T21:14:30;99922.91;;;39.43;24.18
75747;BME280;70632;52.232;21.038;2023-09-12T21:16:56;99922.72;;;38.98;25.52
75747;BME280;70632;52.232;21.038;2023-09-12T21:19:22;99927.91;;;38.59;25.71
75747;BME280;70632;52.232;21.038;2023-09-12T21:21:48;99924.16;;;39.00;25.06
75747;BME280;70632;52.232;21.038;2023-09-12T21:24:14;99925.97;;;38.71;25.77
75747;BME280;70632;52.232;21.038;2023-09-12T21:26:39;99921.25;;;38.83;25.37
75747;BME280;70632;52.232;21.038;2023-09-12T21:29:05;99920.06;;;38.91;25.41
75747;BME280;70632;52.232;21.038;2023-09-12T21:31:31;99918.38;;;38.25;26.44
75747;BME280;70632;52.232;21.038;2023-09-12T21:33:56;99916.41;;;38.79;25.58
75747;BME280;70632;52.232;21.038;2023-09-12T21:36:22;99913.00;;;38.77;25.63
75747;BME280;70632;52.232;21.038;2023-09-12T21:38:49;99916.28;;;38.62;25.57
75747;BME280;70632;52.232;21.038;2023-09-12T21:41:15;99915.06;;;38.81;24.86
75747;BME280;70632;52.232;21.038;2023-09-12T21:43:40;99924.13;;;37.71;26.29
75747;BME280;70632;52.232;21.038;2023-09-12T21:46:06;99914.84;;;38.95;24.63
75747;BME280;70632;52.232;21.038;2023-09-12T21:48:32;99925.00;;;38.54;25.59
75747;BME280;70632;52.232;21.038;2023-09-12T21:50:57;99920.34;;;37.29;27.76
75747;BME280;70632;52.232;21.038;2023-09-12T21:53:23;99915.69;;;38.83;25.84
75747;BME280;70632;52.232;21.038;2023-09-12T21:55:49;99916.34;;;39.37;25.14
75747;BME280;70632;52.232;21.038;2023-09-12T21:58:15;99919.78;;;38.46;26.38
75747;BME280;70632;52.232;21.038;2023-09-12T22:00:41;99918.34;;;38.44;26.24
75747;BME280;70632;52.232;21.038;2023-09-12T22:03:08;99921.91;;;38.32;26.16
75747;BME280;70632;52.232;21.038;2023-09-12T22:05:35;99914.09;;;37.81;26.91
75747;BME280;70632;52.232;21.038;2023-09-12T22:08:03;99921.50;;;37.58;27.10
75747;BME280;70632;52.232;21.038;2023-09-12T22:10:30;99919.72;;;38.88;26.32
75747;BME280;70632;52.232;21.038;2023-09-12T22:12:56;99919.38;;;39.47;24.53
75747;BME280;70632;52.232;21.038;2023-09-12T22:15:21;99912.38;;;39.33;25.15
75747;BME280;70632;52.232;21.038;2023-09-12T22:17:47;99918.72;;;38.94;26.21
75747;BME280;70632;52.232;21.038;2023-09-12T22:20:14;99910.69;;;39.72;24.75
75747;BME280;70632;52.232;21.038;2023-09-12T22:22:44;99918.13;;;38.92;25.76
75747;BME280;70632;52.232;21.038;2023-09-12T22:25:11;99918.69;;;39.17;26.16
75747;BME280;70632;52.232;21.038;2023-09-12T22:27:38;99926.34;;;39.10;25.97
75747;BME280;70632;52.232;21.038;2023-09-12T22:30:05;99931.44;;;38.25;26.89
75747;BME280;70632;52.232;21.038;2023-09-12T22:32:31;99932.53;;;37.64;28.32
75747;BME280;70632;52.232;21.038;2023-09-12T22:34:57;99926.75;;;37.66;28.25
75747;BME280;70632;52.232;21.038;2023-09-12T22:37:22;99924.59;;;37.98;27.92
75747;BME280;70632;52.232;21.038;2023-09-12T22:39:48;99924.63;;;38.51;27.40
75747;BME280;70632;52.232;21.038;2023-09-12T22:42:16;99918.97;;;39.04;26.85
75747;BME280;70632;52.232;21.038;2023-09-12T22:44:42;99915.03;;;40.41;24.79
75747;BME280;70632;52.232;21.038;2023-09-12T22:47:08;99924.03;;;40.77;24.89
75747;BME280;70632;52.232;21.038;2023-09-12T22:49:34;99929.59;;;38.60;27.26
75747;BME280;70632;52.232;21.038;2023-09-12T22:51:59;99936.44;;;37.63;28.56
75747;BME280;70632;52.232;21.038;2023-09-12T22:54:25;99926.13;;;37.93;28.22
75747;BME280;70632;52.232;21.038;2023-09-12T22:56:51;99925.28;;;37.45;28.44
75747;BME280;70632;52.232;21.038;2023-09-12T22:59:17;99930.84;;;37.45;28.50
75747;BME280;70632;52.232;21.038;2023-09-12T23:01:42;99925.63;;;38.15;27.74
75747;BME280;70632;52.232;21.038;2023-09-12T23:04:08;99926.47;;;37.85;27.92
75747;BME280;70632;52.232;21.038;2023-09-12T23:06:34;99925.53;;;37.91;27.94
75747;BME280;70632;52.232;21.038;2023-09-12T23:09:00;99927.22;;;37.92;28.07
75747;BME280;70632;52.232;21.038;2023-09-12T23:11:30;99926.00;;;37.88;28.31
75747;BME280;70632;52.232;21.038;2023-09-12T23:13:58;99926.22;;;37.39;29.04
75747;BME280;70632;52.232;21.038;2023-09-12T23:16:24;99925.47;;;37.50;29.17
75747;BME280;70632;52.232;21.038;2023-09-12T23:18:49;99924.53;;;37.38;29.45
75747;BME280;70632;52.232;21.038;2023-09-12T23:21:15;99922.69;;;37.14;29.45
75747;BME280;70632;52.232;21.038;2023-09-12T23:23:41;99923.72;;;36.94;30.27
75747;BME280;70632;52.232;21.038;2023-09-12T23:26:07;99918.94;;;37.74;28.69
75747;BME280;70632;52.232;21.038;2023-09-12T23:28:32;99917.94;;;39.21;27.09
75747;BME280;70632;52.232;21.038;2023-09-12T23:30:59;99915.91;;;38.47;27.93
75747;BME280;70632;52.232;21.038;2023-09-12T23:33:24;99916.72;;;37.10;29.46
75747;BME280;70632;52.232;21.038;2023-09-12T23:35:50;99925.88;;;38.25;27.78
75747;BME280;70632;52.232;21.038;2023-09-12T23:38:16;99930.56;;;38.54;27.27
75747;BME280;70632;52.232;21.038;2023-09-12T23:40:42;99926.59;;;37.24;28.02
75747;BME280;70632;52.232;21.038;2023-09-12T23:43:10;99920.19;;;36.87;28.08
75747;BME280;70632;52.232;21.038;2023-09-12T23:45:36;99919.69;;;38.11;26.94
75747;BME280;70632;52.232;21.038;2023-09-12T23:48:02;99912.66;;;38.97;25.88
75747;BME280;70632;52.232;21.038;2023-09-12T23:50:29;99917.34;;;37.97;27.65
75747;BME280;70632;52.232;21.038;2023-09-12T23:52:56;99917.25;;;37.37;28.06
75747;BME280;70632;52.232;21.038;2023-09-12T23:55:22;99916.34;;;37.25;28.62
75747;BME280;70632;52.232;21.038;2023-09-12T23:57:48;99914.31;;;37.32;28.40
